Time;durP1;ratioP1;P1;durP2;ratioP2;P2;SDS_P1;SDS_P2;PMS_P1;PMS_P2;Temp;Humidity;BMP_temperature;BMP_pressure;BME280_temperature;BME280_humidity;BME280_pressure;Samples;Min_cycle;Max_cycle;Signal;HPM_P1;HPM_P2
2022/05/23 00:00:51;;;;;;;10.60;5.50;;;;;;;16.31;81.77;100802.34;4994708;28;20036;-86
2022/05/23 00:03:16;;;;;;;11.18;5.53;;;;;;;16.29;81.78;100792.72;5031627;28;20021;-86
2022/05/23 00:05:44;;;;;;;12.18;5.43;;;;;;;16.24;81.73;100792.19;5031932;28;20106;-86
2022/05/23 00:08:10;;;;;;;9.82;4.95;;;;;;;16.24;81.69;100784.16;5011825;28;20026;-86
2022/05/23 00:10:36;;;;;;;12.65;5.30;;;;;;;16.19;82.22;100781.84;5031794;28;20029;-86
2022/05/23 00:13:01;;;;;;;14.70;6.00;;;;;;;16.17;82.96;100786.41;5032612;28;20052;-86
2022/05/23 00:15:27;;;;;;;10.68;5.20;;;;;;;16.19;82.45;100769.31;5030742;28;20037;-86
2022/05/23 00:17:54;;;;;;;9.70;5.47;;;;;;;16.18;82.86;100764.94;5015123;28;20029;-85
2022/05/23 00:20:23;;;;;;;11.27;5.20;;;;;;;16.11;83.03;100768.97;5031323;28;20022;-86
2022/05/23 00:22:48;;;;;;;10.27;5.32;;;;;;;16.07;82.95;100759.47;5031707;28;20025;-85
2022/05/23 00:25:14;;;;;;;12.32;5.43;;;;;;;16.07;83.00;100755.97;5030201;28;20052;-86
2022/05/23 00:27:42;;;;;;;10.00;5.47;;;;;;;15.99;83.50;100752.00;5030914;28;20115;-86
2022/05/23 00:30:11;;;;;;;10.35;5.05;;;;;;;15.96;83.65;100748.66;5031361;28;20025;-86
2022/05/23 00:35:21;;;;;;;9.90;5.68;;;;;;;15.94;83.95;100734.59;5032246;28;20044;-86
2022/05/23 00:37:48;;;;;;;10.70;5.50;;;;;;;15.88;84.12;100730.50;4988058;28;20026;-86
2022/05/23 00:40:36;;;;;;;10.13;5.57;;;;;;;15.81;85.59;100718.53;5014632;28;20111;-86
2022/05/23 00:43:15;;;;;;;12.10;5.30;;;;;;;15.81;85.45;100724.75;5028185;28;20064;-86
2022/05/23 00:45:53;;;;;;;11.88;5.68;;;;;;;15.89;84.98;100738.44;5024818;28;20163;-86
2022/05/23 00:48:23;;;;;;;14.90;5.50;;;;;;;15.93;84.34;100732.88;5013125;28;20504;-87
2022/05/23 00:50:53;;;;;;;11.25;5.28;;;;;;;15.88;84.27;100727.84;5025137;28;20049;-86
2022/05/23 00:53:29;;;;;;;11.25;5.60;;;;;;;15.81;84.67;100738.09;5035018;28;20032;-86
2022/05/23 00:55:54;;;;;;;11.07;5.68;;;;;;;15.72;85.37;100731.53;5033075;28;20044;-87
2022/05/23 00:58:28;;;;;;;10.15;5.70;;;;;;;15.70;85.71;100721.91;5017121;28;20029;-87
2022/05/23 01:00:57;;;;;;;11.02;5.60;;;;;;;15.62;85.92;100722.44;5034131;28;20033;-85
2022/05/23 01:03:22;;;;;;;15.00;6.50;;;;;;;15.55;87.03;100718.50;5034349;28;20021;-85
2022/05/23 01:05:49;;;;;;;12.82;6.05;;;;;;;15.54;87.07;100711.44;5051781;28;20037;-86
2022/05/23 01:08:16;;;;;;;9.40;5.72;;;;;;;15.47;87.03;100716.31;5033719;28;20052;-88
2022/05/23 01:10:43;;;;;;;11.40;6.00;;;;;;;15.38;88.05;100714.28;5004576;28;20037;-85
2022/05/23 01:13:08;;;;;;;12.57;5.88;;;;;;;15.34;88.93;100720.78;5018301;28;20489;-86
2022/05/23 01:15:34;;;;;;;12.65;6.05;;;;;;;15.28;89.04;100711.41;5035356;28;20155;-85
2022/05/23 01:18:19;;;;;;;9.05;5.60;;;;;;;15.18;89.65;100712.94;5022907;28;20045;-85
2022/05/23 01:20:46;;;;;;;10.57;6.07;;;;;;;15.10;90.50;100716.13;5035518;28;20111;-86
2022/05/23 01:23:16;;;;;;;10.27;5.97;;;;;;;15.06;91.00;100711.94;5002632;28;20021;-83
2022/05/23 01:25:44;;;;;;;13.13;6.53;;;;;;;14.99;91.39;100716.84;5055948;28;20037;-84
2022/05/23 01:28:11;;;;;;;13.82;7.35;;;;;;;14.93;92.35;100705.72;5035471;28;20020;-85
2022/05/23 01:30:39;;;;;;;7.10;5.20;;;;;;;14.92;92.32;100712.84;5037010;28;20037;-84
2022/05/23 01:33:04;;;;;;;13.48;6.30;;;;;;;14.85;92.61;100712.41;5021255;28;20071;-85
2022/05/23 01:35:30;;;;;;;11.63;6.47;;;;;;;14.84;93.04;100709.84;5019490;28;20020;-87
2022/05/23 01:37:56;;;;;;;11.40;6.18;;;;;;;14.88;92.78;100709.53;5041342;28;20066;-86
2022/05/23 01:40:23;;;;;;;11.50;6.38;;;;;;;14.84;93.01;100705.34;5003504;28;20059;-86
2022/05/23 01:42:49;;;;;;;11.50;6.30;;;;;;;14.85;93.26;100696.41;5020212;28;20079;-87
2022/05/23 01:45:18;;;;;;;10.73;5.80;;;;;;;14.81;92.92;100699.34;5020277;28;20025;-87
2022/05/23 01:47:44;;;;;;;12.02;6.63;;;;;;;14.80;93.87;100697.66;5034996;28;20028;-86
2022/05/23 01:50:10;;;;;;;12.60;5.90;;;;;;;14.78;93.17;100692.41;5032787;28;20119;-86
2022/05/23 01:52:54;;;;;;;14.00;6.40;;;;;;;14.76;93.23;100697.00;5018007;28;20040;-87
2022/05/23 01:55:20;;;;;;;11.18;5.85;;;;;;;14.78;93.87;100703.06;5032815;28;20031;-86
2022/05/23 01:57:46;;;;;;;13.80;6.80;;;;;;;14.77;93.75;100696.06;5033863;28;20033;-86
2022/05/23 02:02:56;;;;;;;10.07;6.22;;;;;;;14.84;93.46;100689.34;5035373;28;20104;-86
2022/05/23 02:05:40;;;;;;;11.20;6.05;;;;;;;14.78;93.47;100687.09;5004583;28;20022;-85
2022/05/23 02:08:06;;;;;;;10.38;6.55;;;;;;;14.74;93.76;100682.91;5025138;28;20481;-85
2022/05/23 02:10:32;;;;;;;12.68;6.70;;;;;;;14.75;94.07;100689.97;5004613;28;20051;-86
2022/05/23 02:13:00;;;;;;;10.45;6.35;;;;;;;14.77;93.78;100689.84;5033945;28;20029;-86
2022/05/23 02:15:31;;;;;;;10.88;6.00;;;;;;;14.78;93.96;100689.75;5001075;28;20026;-85
2022/05/23 02:18:01;;;;;;;10.82;6.03;;;;;;;14.83;93.96;100690.31;5033235;28;20038;-85
2022/05/23 02:20:27;;;;;;;10.90;6.30;;;;;;;14.86;94.06;100675.91;5049245;28;20028;-85
2022/05/23 02:22:54;;;;;;;13.07;6.72;;;;;;;14.87;93.56;100678.50;5044895;28;20025;-86
2022/05/23 02:25:20;;;;;;;12.65;6.32;;;;;;;14.89;93.81;100673.91;5032489;28;20032;-84
2022/05/23 02:28:04;;;;;;;11.32;6.38;;;;;;;14.89;93.82;100668.56;5035027;28;20021;-85
2022/05/23 02:30:29;;;;;;;15.13;6.50;;;;;;;14.86;94.40;100676.78;5030431;28;20040;-85
2022/05/23 02:32:55;;;;;;;11.10;6.35;;;;;;;14.86;94.37;100666.13;5002491;28;20041;-85
2022/05/23 02:35:21;;;;;;;10.27;5.70;;;;;;;14.86;94.51;100660.78;5036890;28;20029;-85
2022/05/23 02:37:48;;;;;;;12.80;6.95;;;;;;;14.86;95.01;100655.47;5033798;28;20480;-85
2022/05/23 02:40:14;;;;;;;11.68;6.13;;;;;;;14.86;95.68;100642.13;5034555;28;20029;-85
2022/05/23 02:42:40;;;;;;;10.68;6.20;;;;;;;14.87;95.82;100649.19;5032995;28;20036;-86
2022/05/23 02:45:09;;;;;;;11.60;6.70;;;;;;;14.86;96.17;100631.47;5014423;28;20021;-85
2022/05/23 02:47:36;;;;;;;12.45;6.20;;;;;;;14.85;96.30;100624.41;5015715;28;20382;-85
2022/05/23 02:50:03;;;;;;;13.13;5.95;;;;;;;14.87;96.58;100619.84;5033119;28;20068;-85
2022/05/23 02:52:28;;;;;;;14.88;7.20;;;;;;;14.89;96.65;100630.41;5038535;28;20029;-86
2022/05/23 02:54:54;;;;;;;11.88;6.35;;;;;;;15.00;96.19;100622.56;5024747;28;20043;-87
2022/05/23 02:57:19;;;;;;;12.80;6.03;;;;;;;15.08;94.67;100617.53;5039247;28;20025;-86
2022/05/23 02:59:45;;;;;;;12.48;6.47;;;;;;;15.11;94.96;100610.31;5050969;28;20461;-86
2022/05/23 03:04:54;;;;;;;10.63;6.20;;;;;;;15.03;95.18;100590.34;5023096;28;20076;-86
2022/05/23 03:07:19;;;;;;;13.23;7.05;;;;;;;14.98;95.86;100583.63;5019189;28;20064;-86
2022/05/23 03:09:45;;;;;;;10.80;6.05;;;;;;;14.96;96.28;100578.41;5015648;28;20090;-86
2022/05/23 03:12:11;;;;;;;11.35;5.82;;;;;;;14.96;96.11;100575.72;5037781;28;20447;-86
2022/05/23 03:14:37;;;;;;;10.57;6.32;;;;;;;14.97;95.39;100564.09;5049187;28;20381;-86
2022/05/23 03:17:04;;;;;;;11.23;6.03;;;;;;;14.91;95.33;100564.50;5009429;28;20030;-87
2022/05/23 03:19:30;;;;;;;10.60;5.80;;;;;;;14.86;94.93;100564.81;5037645;28;20071;-85
2022/05/23 03:27:24;;;;;;;12.25;6.18;;;;;;;14.96;94.42;100540.19;5037650;28;20075;-85
2022/05/23 03:29:51;;;;;;;13.57;6.25;;;;;;;14.95;93.23;100530.47;5046459;28;20025;-85
2022/05/23 03:32:17;;;;;;;11.35;6.13;;;;;;;14.95;93.12;100533.16;5025511;28;20033;-85
2022/05/23 03:34:42;;;;;;;11.50;5.93;;;;;;;14.96;93.81;100524.19;5025864;28;20033;-86
2022/05/23 03:37:08;;;;;;;8.88;5.38;;;;;;;14.97;92.86;100524.09;5022880;28;20613;-86
2022/05/23 03:39:33;;;;;;;10.15;5.72;;;;;;;14.97;93.17;100524.09;5034899;28;20063;-85
2022/05/23 03:41:58;;;;;;;8.45;5.95;;;;;;;14.96;93.85;100522.41;5024214;28;20028;-84
2022/05/23 03:44:42;;;;;;;10.77;5.97;;;;;;;14.96;93.71;100517.06;5037315;28;20021;-86
2022/05/23 03:47:08;;;;;;;10.52;5.53;;;;;;;14.95;94.21;100523.34;5018874;28;20021;-87
2022/05/23 03:49:33;;;;;;;11.57;5.70;;;;;;;14.94;94.39;100518.13;5021814;28;20476;-86
2022/05/23 03:51:59;;;;;;;11.57;5.40;;;;;;;14.91;94.65;100509.38;5030680;28;20056;-85
2022/05/23 03:54:26;;;;;;;8.75;5.57;;;;;;;14.88;94.80;100501.56;5041285;28;20026;-83
2022/05/23 03:57:00;;;;;;;10.02;5.80;;;;;;;14.85;95.80;100499.13;5048711;28;20059;-82
2022/05/23 03:59:27;;;;;;;9.07;5.55;;;;;;;14.86;95.75;100491.97;5049401;28;20029;-85
2022/05/23 04:01:56;;;;;;;10.75;5.60;;;;;;;14.86;95.44;100495.50;5035442;28;20037;-86
2022/05/23 04:04:22;;;;;;;10.10;5.72;;;;;;;14.91;96.16;100493.38;5030139;28;20481;-86
2022/05/23 04:06:48;;;;;;;8.88;5.13;;;;;;;14.96;95.43;100493.06;5030563;28;20035;-85
2022/05/23 04:09:13;;;;;;;11.10;5.47;;;;;;;15.00;94.92;100485.69;5021450;28;20025;-86
2022/05/23 04:11:38;;;;;;;8.07;5.20;;;;;;;15.03;94.96;100494.34;5050549;28;20044;-85
2022/05/23 04:14:04;;;;;;;10.13;5.53;;;;;;;15.07;94.63;100484.31;5036934;28;20029;-86
2022/05/23 04:16:29;;;;;;;8.10;5.35;;;;;;;15.10;94.70;100489.44;5057570;28;20036;-85
2022/05/23 04:18:56;;;;;;;12.55;5.63;;;;;;;15.13;94.79;100483.91;5057413;28;20033;-85
2022/05/23 04:21:22;;;;;;;9.48;5.30;;;;;;;15.14;94.80;100488.28;5038320;28;20035;-86
2022/05/23 04:23:48;;;;;;;15.48;5.95;;;;;;;15.12;95.43;100478.69;5039868;28;20025;-87
2022/05/23 04:26:13;;;;;;;8.15;5.80;;;;;;;15.14;95.38;100482.94;5035303;28;20029;-87
2022/05/23 04:28:39;;;;;;;9.88;5.90;;;;;;;15.11;95.43;100480.47;5047436;28;20013;-88
2022/05/23 04:31:08;;;;;;;9.50;5.13;;;;;;;15.11;95.27;100483.13;5037803;28;20546;-86
2022/05/23 04:36:18;;;;;;;9.43;5.60;;;;;;;15.12;95.07;100465.34;5052144;28;20044;-86
2022/05/23 04:38:43;;;;;;;10.73;6.20;;;;;;;15.15;95.03;100467.78;5034904;28;20037;-86
2022/05/23 04:41:09;;;;;;;12.07;5.43;;;;;;;15.17;95.05;100468.53;5033444;28;20055;-86
2022/05/23 04:43:35;;;;;;;10.90;5.20;;;;;;;15.26;94.54;100456.38;5037094;28;20079;-86
2022/05/23 04:46:00;;;;;;;9.70;5.10;;;;;;;15.30;94.46;100448.03;5018406;28;20024;-87
2022/05/23 04:51:09;;;;;;;13.30;6.13;;;;;;;15.35;94.87;100440.53;5061458;28;20103;-86
2022/05/23 04:53:35;;;;;;;10.45;5.30;;;;;;;15.38;94.68;100429.66;5021714;28;20500;-87
2022/05/23 04:56:01;;;;;;;10.20;5.57;;;;;;;15.45;94.73;100419.41;5005393;28;20037;-86
2022/05/23 04:58:27;;;;;;;11.32;6.20;;;;;;;15.63;93.39;100422.56;5005530;28;20448;-86
2022/05/23 05:00:56;;;;;;;11.13;6.10;;;;;;;15.80;92.10;100431.16;5040949;28;20037;-86
2022/05/23 05:03:22;;;;;;;10.75;5.95;;;;;;;15.97;90.93;100422.78;5020933;28;20048;-87
2022/05/23 05:05:48;;;;;;;13.50;6.03;;;;;;;16.15;89.97;100428.56;5040256;28;20028;-86
2022/05/23 05:08:13;;;;;;;10.40;5.80;;;;;;;16.35;88.96;100428.88;5034581;28;20028;-87
2022/05/23 05:10:39;;;;;;;14.00;5.57;;;;;;;16.46;88.98;100425.38;5036334;28;20032;-87
2022/05/23 05:13:05;;;;;;;12.68;5.68;;;;;;;16.49;87.36;100423.31;5032245;28;20024;-87
2022/05/23 05:15:31;;;;;;;10.90;5.60;;;;;;;16.51;87.44;100424.06;5037214;28;20033;-87
2022/05/23 05:17:57;;;;;;;10.63;5.57;;;;;;;16.59;86.75;100414.63;5021293;28;20021;-86
2022/05/23 05:20:23;;;;;;;11.30;5.65;;;;;;;16.62;86.07;100414.38;5036878;28;20404;-87
2022/05/23 05:22:51;;;;;;;10.48;5.75;;;;;;;16.63;86.64;100405.38;5053885;28;20158;-87
2022/05/23 05:25:17;;;;;;;11.75;5.97;;;;;;;16.62;87.03;100409.03;5054853;28;20028;-87
2022/05/23 05:28:02;;;;;;;10.70;5.68;;;;;;;16.60;87.13;100400.25;5021101;28;20017;-87
2022/05/23 05:30:27;;;;;;;10.95;5.80;;;;;;;16.62;88.09;100398.31;5037467;28;20480;-86
2022/05/23 05:33:00;;;;;;;8.57;5.57;;;;;;;16.61;88.52;100388.59;5003451;28;20031;-86
2022/05/23 05:35:32;;;;;;;10.23;6.45;;;;;;;16.68;88.71;100385.34;5037234;28;20491;-86
2022/05/23 05:38:04;;;;;;;;;;;;;;;16.78;87.24;100392.66;5055111;28;20106;-88
2022/05/23 05:40:32;;;;;;;14.40;6.15;;;;;;;16.97;86.89;100384.03;5036631;28;19916;-88
2022/05/23 05:43:01;;;;;;;15.02;6.50;;;;;;;17.08;84.99;100386.72;5039434;28;20035;-88
2022/05/23 05:45:53;;;;;;;12.93;5.80;;;;;;;17.31;83.16;100378.69;5037798;28;20520;-87
2022/05/23 05:48:19;;;;;;;;;;;;;;;17.36;82.92;100377.31;5060260;28;20028;-88
2022/05/23 05:50:48;;;;;;;22.67;6.55;;;;;;;17.35;84.20;100375.66;5036040;28;19925;-87
2022/05/23 05:53:21;;;;;;;9.93;6.05;;;;;;;17.38;84.04;100369.19;5035110;28;20113;-88
2022/05/23 05:55:46;;;;;;;11.50;5.90;;;;;;;17.44;83.15;100370.50;5032946;28;20021;-88
2022/05/23 05:58:13;;;;;;;13.65;6.72;;;;;;;17.47;82.75;100373.78;5017370;28;20044;-87
2022/05/23 06:00:38;;;;;;;14.25;6.78;;;;;;;17.50;83.02;100370.84;5043876;28;20098;-87
2022/05/23 06:03:04;;;;;;;9.68;6.30;;;;;;;17.53;82.79;100375.09;5003626;28;20472;-87
2022/05/23 06:11:23;;;;;;;14.75;6.68;;;;;;;17.45;85.74;100362.34;5040289;28;20044;-84
2022/05/23 06:13:50;;;;;;;13.80;6.57;;;;;;;17.51;85.89;100363.69;5021214;28;20102;-87
2022/05/23 06:16:16;;;;;;;17.48;7.20;;;;;;;17.58;85.80;100372.06;5037248;28;20052;-85
2022/05/23 06:18:42;;;;;;;14.40;7.00;;;;;;;17.70;85.67;100371.06;5021765;28;20519;-84
2022/05/23 06:21:09;;;;;;;14.70;7.47;;;;;;;17.85;83.80;100358.19;5037500;28;20464;-86
2022/05/23 06:23:42;;;;;;;12.27;7.20;;;;;;;17.92;82.04;100353.22;5054376;28;20017;-85
2022/05/23 06:26:07;;;;;;;12.30;7.22;;;;;;;17.96;83.32;100343.97;5034823;28;20074;-87
2022/05/23 06:28:35;;;;;;;14.80;6.75;;;;;;;18.02;81.07;100340.78;5036339;28;20013;-87
2022/05/23 06:31:02;;;;;;;12.68;7.63;;;;;;;17.97;81.31;100334.94;5003759;28;20090;-87
2022/05/23 06:33:28;;;;;;;16.23;7.32;;;;;;;17.97;81.21;100327.75;5019912;28;20033;-87
2022/05/23 06:35:54;;;;;;;13.13;7.25;;;;;;;18.02;81.43;100335.41;5003720;28;20040;-87
2022/05/23 06:38:19;;;;;;;13.32;6.70;;;;;;;18.04;81.93;100325.41;5001445;28;20017;-88
2022/05/23 06:40:48;;;;;;;14.23;7.05;;;;;;;17.92;83.47;100324.56;5012622;28;20025;-88
2022/05/23 06:43:13;;;;;;;13.45;7.63;;;;;;;17.80;84.22;100322.91;5054284;28;20029;-87
2022/05/23 06:45:38;;;;;;;16.00;8.13;;;;;;;17.72;85.32;100318.22;5035669;28;20043;-87
2022/05/23 06:48:04;;;;;;;11.60;6.78;;;;;;;17.70;85.62;100320.19;5036181;28;20051;-88
2022/05/23 06:50:29;;;;;;;11.98;7.75;;;;;;;17.75;84.91;100320.66;5036179;28;20064;-88
2022/05/23 06:52:55;;;;;;;18.30;7.70;;;;;;;17.78;83.64;100308.81;5035855;28;20472;-87
2022/05/23 06:55:22;;;;;;;12.25;7.38;;;;;;;17.88;82.54;100314.25;5052762;28;20028;-88
2022/05/23 06:57:47;;;;;;;12.32;7.82;;;;;;;18.10;82.84;100316.00;5018771;28;20390;-87
2022/05/23 07:00:14;;;;;;;12.38;7.50;;;;;;;18.26;80.03;100324.44;5019358;28;20032;-88
2022/05/23 07:02:39;;;;;;;15.30;7.22;;;;;;;18.34;79.46;100321.94;5036273;28;20033;-87
2022/05/23 07:13:19;;;;;;;12.68;7.68;;;;;;;18.32;79.81;100307.81;5058828;28;20047;-86
2022/05/23 07:15:48;;;;;;;14.50;7.80;;;;;;;18.30;80.23;100311.59;5024592;28;20028;-88
2022/05/23 07:18:18;;;;;;;12.63;7.82;;;;;;;18.34;80.32;100310.38;5023627;28;20032;-86
2022/05/23 07:20:44;;;;;;;11.50;7.72;;;;;;;18.34;80.91;100307.69;5056334;28;20059;-88
2022/05/23 07:23:11;;;;;;;13.57;8.57;;;;;;;18.21;80.41;100304.34;5048011;28;20427;-87
2022/05/23 07:25:37;;;;;;;16.40;8.00;;;;;;;18.27;81.49;100293.13;5036903;28;20100;-88
2022/05/23 07:28:04;;;;;;;13.40;7.82;;;;;;;18.30;81.22;100292.84;5020374;28;20503;-88
2022/05/23 07:30:30;;;;;;;16.83;8.05;;;;;;;18.43;80.85;100300.69;5036624;28;20078;-88
2022/05/23 07:32:57;;;;;;;18.30;8.38;;;;;;;18.58;80.29;100303.84;5019465;28;20439;-89
2022/05/23 07:35:23;;;;;;;16.25;7.93;;;;;;;18.71;79.74;100309.84;5019333;28;20511;-89
2022/05/23 07:37:49;;;;;;;13.52;8.00;;;;;;;18.76;78.36;100315.66;5018854;28;20052;-89
2022/05/23 07:40:15;;;;;;;12.05;7.75;;;;;;;18.92;79.48;100296.41;5052056;28;20021;-89
2022/05/23 07:42:40;;;;;;;12.30;8.00;;;;;;;19.12;78.55;100302.66;5042405;28;20028;-88
2022/05/23 07:45:07;;;;;;;14.45;8.35;;;;;;;19.34;78.12;100305.28;5072992;28;20603;-88
2022/05/23 07:47:33;;;;;;;13.30;8.15;;;;;;;19.52;76.12;100295.53;5054963;28;20032;-89
2022/05/23 07:49:59;;;;;;;12.43;7.93;;;;;;;19.64;74.87;100298.91;5055162;28;20020;-89
2022/05/23 07:52:25;;;;;;;13.13;8.23;;;;;;;19.56;74.66;100296.09;5073065;28;20067;-90
2022/05/23 08:00:33;;;;;;;14.18;8.02;;;;;;;19.65;74.71;100287.19;5031975;28;20091;-89
2022/05/23 08:03:10;;;;;;;12.13;7.55;;;;;;;19.89;75.60;100278.72;5025730;28;20047;-89
2022/05/23 08:05:37;;;;;;;14.82;8.00;;;;;;;20.15;73.57;100280.78;5049900;28;20017;-87
2022/05/23 08:08:02;;;;;;;10.85;8.10;;;;;;;20.18;72.77;100279.66;5049278;28;20029;-87
2022/05/23 08:10:28;;;;;;;12.88;7.53;;;;;;;20.33;72.32;100280.06;5051000;28;20194;-86
2022/05/23 08:12:57;;;;;;;16.10;8.05;;;;;;;20.46;72.78;100273.38;5031614;28;20545;-87
2022/05/23 08:15:26;;;;;;;13.45;8.30;;;;;;;20.57;71.89;100271.47;5045945;28;20032;-88
2022/05/23 08:17:51;;;;;;;13.05;7.63;;;;;;;20.82;72.32;100263.75;5055347;28;20044;-88
2022/05/23 08:20:17;;;;;;;13.77;8.43;;;;;;;21.11;72.24;100259.06;5035365;28;20029;-88
2022/05/23 08:22:45;;;;;;;11.52;8.07;;;;;;;21.30;69.50;100264.44;5021327;28;20131;-89
2022/05/23 08:25:11;;;;;;;12.82;8.50;;;;;;;21.23;68.66;100261.53;5039497;28;20024;-88
2022/05/23 08:27:37;;;;;;;15.57;8.63;;;;;;;21.48;67.67;100259.91;5038006;28;20638;-88
2022/05/23 08:30:04;;;;;;;11.38;7.95;;;;;;;21.77;68.64;100248.06;5024722;28;20123;-89
2022/05/23 08:32:30;;;;;;;13.77;8.88;;;;;;;22.31;66.63;100234.44;5030198;28;20025;-88
2022/05/23 08:34:55;;;;;;;13.75;8.30;;;;;;;22.30;64.98;100224.63;5039090;28;20037;-89
2022/05/23 08:37:21;;;;;;;11.60;7.63;;;;;;;22.53;64.40;100224.13;5016726;28;20380;-89
2022/05/23 08:39:50;;;;;;;12.32;7.97;;;;;;;22.49;61.93;100225.44;5006290;28;20037;-89
2022/05/23 08:42:21;;;;;;;14.20;8.00;;;;;;;22.95;62.94;100219.72;5042756;28;20033;-89
2022/05/23 08:45:08;;;;;;;13.25;8.07;;;;;;;23.73;57.41;100218.44;5062870;28;20033;-87
2022/05/23 08:48:01;;;;;;;12.23;7.70;;;;;;;24.02;55.97;100215.22;5032666;28;20037;-89
2022/05/23 08:51:14;;;;;;;15.10;8.63;;;;;;;23.76;56.18;100219.97;5064726;28;20448;-86
2022/05/23 08:53:55;;;;;;;12.70;8.38;;;;;;;23.06;59.56;100216.69;5034348;28;20040;-90
2022/05/23 08:56:27;;;;;;;14.25;8.25;;;;;;;22.91;59.14;100211.91;5038540;28;20025;-89
2022/05/23 08:58:59;;;;;;;11.02;8.55;;;;;;;22.83;60.04;100211.09;5049725;28;20018;-88
2022/05/23 09:01:58;;;;;;;14.20;9.00;;;;;;;22.87;61.04;100217.84;5038425;28;20025;-89
2022/05/23 09:04:42;;;;;;;12.70;7.57;;;;;;;22.97;61.70;100212.28;5032379;28;20029;-89
2022/05/23 09:07:10;;;;;;;13.55;9.02;;;;;;;22.65;62.89;100208.47;5056769;28;20120;-90
2022/05/23 09:09:37;;;;;;;13.85;9.38;;;;;;;22.25;63.77;100198.16;5038025;28;20017;-89
2022/05/23 09:12:15;;;;;;;16.10;9.02;;;;;;;22.43;63.04;100199.97;5012189;28;20393;-89
2022/05/23 09:14:41;;;;;;;16.00;8.45;;;;;;;22.53;62.28;100192.59;5019067;28;20021;-89
2022/05/23 09:17:16;;;;;;;14.07;8.27;;;;;;;23.01;61.29;100190.19;5038378;28;20538;-88
2022/05/23 09:19:51;;;;;;;14.27;8.73;;;;;;;23.11;60.16;100186.47;5033491;28;20021;-90
2022/05/23 09:22:23;;;;;;;12.95;8.48;;;;;;;22.82;61.53;100190.50;5035777;28;20017;-89
2022/05/23 09:24:55;;;;;;;13.27;9.48;;;;;;;22.64;63.59;100186.03;5037871;28;20361;-90
2022/05/23 09:27:30;;;;;;;14.85;9.68;;;;;;;22.45;64.15;100180.94;5056123;28;20024;-90
2022/05/23 09:29:58;;;;;;;17.75;10.18;;;;;;;22.12;64.18;100178.03;5038184;28;20441;-90
2022/05/23 09:32:38;;;;;;;13.50;9.73;;;;;;;21.96;64.52;100171.56;5005557;28;20067;-90
2022/05/23 09:35:15;;;;;;;15.25;11.00;;;;;;;21.66;65.44;100159.41;5036426;28;20029;-90
2022/05/23 09:37:46;;;;;;;12.85;10.48;;;;;;;21.41;67.78;100160.03;5045806;28;20028;-89
2022/05/23 09:40:47;;;;;;;14.68;11.07;;;;;;;21.29;70.08;100158.56;5076642;28;20366;-90
2022/05/23 09:49:06;;;;;;;15.77;10.32;;;;;;;21.57;68.12;100124.31;5077642;28;20048;-89
2022/05/23 09:51:48;;;;;;;16.17;10.15;;;;;;;21.45;68.31;100123.69;5058997;28;20097;-88
2022/05/23 09:54:19;;;;;;;17.73;9.95;;;;;;;21.44;68.35;100124.72;5058578;28;20028;-90
2022/05/23 09:56:45;;;;;;;15.55;10.40;;;;;;;21.51;67.70;100129.44;5044542;28;20036;-89
2022/05/23 09:59:29;;;;;;;21.50;11.77;;;;;;;21.33;69.84;100126.78;5023235;28;20090;-90
2022/05/23 10:01:55;;;;;;;15.88;10.93;;;;;;;21.20;70.76;100116.44;5055753;28;20025;-89
2022/05/23 10:04:30;;;;;;;17.13;11.50;;;;;;;21.19;71.09;100120.97;5038707;28;20033;-90
2022/05/23 10:06:56;;;;;;;18.13;12.52;;;;;;;21.24;72.07;100112.41;5054637;28;20036;-88
2022/05/23 10:09:28;;;;;;;17.35;12.00;;;;;;;21.37;73.09;100107.47;5021622;28;20017;-88
2022/05/23 10:12:00;;;;;;;18.08;12.45;;;;;;;21.37;72.27;100102.09;5054372;28;20112;-88
2022/05/23 10:14:47;;;;;;;20.02;12.95;;;;;;;21.43;72.74;100106.84;5037713;28;20029;-88
2022/05/23 10:17:27;;;;;;;18.00;12.82;;;;;;;21.27;70.99;100098.66;5037825;28;20028;-88
2022/05/23 10:20:14;;;;;;;14.95;10.70;;;;;;;21.14;71.84;100095.50;5037268;28;20503;-89
2022/05/23 10:22:54;;;;;;;16.38;12.40;;;;;;;21.12;71.48;100087.59;5036670;28;20506;-89
2022/05/23 10:25:20;;;;;;;20.15;12.13;;;;;;;21.02;73.13;100084.97;5055153;28;20028;-89
2022/05/23 10:27:53;;;;;;;17.23;11.38;;;;;;;21.23;72.52;100071.19;5020623;28;20075;-88
2022/05/23 10:30:20;;;;;;;19.58;10.73;;;;;;;21.65;70.55;100074.16;5054665;28;20032;-88
2022/05/23 10:33:19;;;;;;;19.77;11.00;;;;;;;22.01;70.69;100058.69;5050142;28;20075;-88
2022/05/23 10:36:13;;;;;;;17.02;9.65;;;;;;;22.48;68.19;100057.34;5036087;28;20041;-88
2022/05/23 10:42:07;;;;;;;16.65;10.80;;;;;;;23.06;62.85;100054.69;5033822;28;20492;-88
2022/05/23 10:45:00;;;;;;;14.38;9.30;;;;;;;23.17;64.15;100058.91;5050338;28;20474;-91
2022/05/23 10:47:54;;;;;;;16.10;10.70;;;;;;;23.41;64.69;100047.22;5033670;28;20087;-90
2022/05/23 10:50:23;;;;;;;13.77;10.38;;;;;;;23.59;61.76;100059.69;5037105;28;20057;-90
2022/05/23 10:53:25;;;;;;;19.40;11.40;;;;;;;23.59;61.47;100048.88;5056735;28;20135;-90
2022/05/23 10:56:09;;;;;;;15.98;10.52;;;;;;;23.53;61.49;100045.00;5025391;28;20033;-90
2022/05/23 10:58:51;;;;;;;13.05;8.98;;;;;;;24.15;59.72;100054.28;5037178;28;20021;-91
2022/05/23 11:01:41;;;;;;;16.23;10.80;;;;;;;24.38;59.12;100047.03;5056127;28;20081;-90
2022/05/23 11:04:27;;;;;;;16.05;10.70;;;;;;;24.24;58.45;100028.84;5038867;28;20025;-90
2022/05/23 11:06:58;;;;;;;18.20;10.82;;;;;;;24.00;59.77;100016.31;5038892;28;20089;-91
2022/05/23 11:09:45;;;;;;;14.70;10.82;;;;;;;24.21;59.68;100011.13;5042519;28;20048;-89
2022/05/23 11:12:35;;;;;;;17.77;10.55;;;;;;;24.36;58.94;100011.19;5051760;28;20024;-90
2022/05/23 11:15:27;;;;;;;15.57;9.87;;;;;;;24.61;56.43;100010.19;5046911;28;20025;-88
2022/05/23 11:18:14;;;;;;;13.63;9.65;;;;;;;24.81;56.95;99995.16;5056522;28;20009;-87
2022/05/23 11:20:41;;;;;;;16.98;10.55;;;;;;;24.78;55.32;100005.50;5039360;28;20067;-89
2022/05/23 11:23:12;;;;;;;14.60;9.50;;;;;;;25.21;54.36;100000.38;5002587;28;20148;-89
2022/05/23 11:25:47;;;;;;;14.10;10.07;;;;;;;25.02;53.96;99999.84;5055570;28;20052;-90
2022/05/23 11:34:29;;;;;;;14.65;11.57;;;;;;;24.16;58.60;99996.47;5056104;28;20107;-90
2022/05/23 11:37:08;;;;;;;18.30;10.52;;;;;;;24.04;59.89;99996.00;5054108;28;20031;-90
2022/05/23 11:39:45;;;;;;;14.27;10.02;;;;;;;23.67;60.39;99997.50;5055373;28;20021;-90
2022/05/23 11:42:12;;;;;;;14.60;9.93;;;;;;;23.62;61.20;99986.38;5037228;28;20032;-89
2022/05/23 11:44:53;;;;;;;16.25;10.38;;;;;;;23.30;61.85;99971.94;5036733;28;20033;-88
2022/05/23 11:47:28;;;;;;;15.20;10.77;;;;;;;23.16;65.01;99962.69;5054659;28;20028;-88
2022/05/23 11:49:59;;;;;;;14.90;10.02;;;;;;;23.11;63.54;99962.34;5037003;28;20081;-88
2022/05/23 11:52:41;;;;;;;15.73;10.60;;;;;;;23.03;62.82;99944.31;5032933;28;20095;-87
2022/05/23 11:55:31;;;;;;;15.50;11.00;;;;;;;23.03;63.64;99933.50;5054825;28;20044;-89
2022/05/23 11:58:24;;;;;;;15.77;9.43;;;;;;;23.17;62.98;99932.84;5060289;28;20399;-88
2022/05/23 12:01:14;;;;;;;13.88;10.27;;;;;;;23.14;63.23;99926.91;5074601;28;20478;-88
2022/05/23 12:04:03;;;;;;;13.77;10.60;;;;;;;23.24;62.58;99930.28;5065529;28;20133;-88
2022/05/23 12:06:28;;;;;;;13.55;11.18;;;;;;;23.14;62.70;99927.75;5041797;28;20291;-89
2022/05/23 12:08:57;;;;;;;14.90;10.32;;;;;;;23.17;63.47;99921.19;5032457;28;20116;-90
2022/05/23 12:11:39;;;;;;;16.73;9.55;;;;;;;23.51;61.08;99923.59;5031921;28;20022;-89
2022/05/23 12:14:20;;;;;;;12.30;9.70;;;;;;;23.65;61.37;99913.88;5036518;28;20029;-89
2022/05/23 12:16:55;;;;;;;13.30;8.85;;;;;;;23.71;60.83;99907.78;5036268;28;20037;-89
2022/05/23 12:19:40;;;;;;;14.68;10.30;;;;;;;23.50;62.62;99904.84;5031896;28;20030;-90
2022/05/23 12:22:25;;;;;;;15.80;10.55;;;;;;;23.07;62.04;99906.00;5033607;28;20034;-91
2022/05/23 12:25:09;;;;;;;14.20;10.30;;;;;;;22.69;63.74;99910.31;5032467;28;20021;-91
2022/05/23 12:27:42;;;;;;;15.38;10.30;;;;;;;22.43;64.84;99900.56;5025869;28;20116;-91